Nearby METAR Reports

 

EGSS - Stansted Airport, United Kingdom
Distance from station: NW 15mi, 24km
Updated: 20/06/2021 03:50
Overcast
Overcast
 Wind from NNE
Wind: NNE 6 mph , 9 km/h
Temperature: 12°C
Dew Point: 12°C
Humidity: 100%
Barometer: 1008 hPa
Clouds: Overcast
Visibility: 5 miles , 8 km
Cloud details: Mostly cloudy 122 m
Overcast 457 m
2021/06/20 02:50 EGSS 200250Z AUTO 02005KT 8000 BKN004 OVC015 12/12 Q1008
EGMC - Southend-On-Sea, United Kingdom
Distance from station: SE 15mi, 25km
Updated: 20/06/2021 03:20
Mostly cloudy
Mostly cloudy
 Wind from N
Wind: N 9 mph , 15 km/h
Temperature: 13°C
Dew Point: 12°C
Humidity: 94%
Barometer: 1008 hPa
Clouds: Mostly cloudy
Visibility: 4 miles , 7 km
Cloud details: Mostly cloudy 152 m
Mostly cloudy 244 m
2021/06/20 02:20 EGMC 200220Z 36008KT 7000 BKN005 BKN008 13/12 Q1008
 
EGLC - London City Airp, United Kingdom
Distance from station: SW 24mi, 39km
Updated: 20/06/2021 03:50
Overcast
Overcast
 Wind from varies
Wind: varies 5 mph , 7 km/h
Temperature: 13°C
Dew Point: 12°C
Humidity: 94%
Barometer: 1008 hPa
Clouds: Overcast
Visibility: 6 miles , 10 km
Cloud details: Overcast 213 m
2021/06/20 02:50 EGLC 200250Z AUTO VRB04KT 9999 OVC007 13/12 Q1008
EGUW - Wattisham Raf, United Kingdom
Distance from station: NE 34mi, 54km
Updated: 20/06/2021 03:50
Rain, Overcast
Rain, Overcast
 Wind from N
Wind: N 8 mph , 13 km/h
Temperature: 12°C
Dew Point: 12°C
Humidity: 100%
Barometer: 1008 hPa
Summary: Rain
Clouds: Overcast
Visibility: 2 miles , 3 km
Cloud details: Overcast 61 m
2021/06/20 02:50 EGUW 200250Z AUTO 01007KT 2600 RA OVC002/// 12/12 Q1008
 
EGGW - Luton Airport, United Kingdom
Distance from station: WNW 37mi, 59km
Updated: 20/06/2021 03:50
Mist, Overcast
Mist, Overcast
 Wind from NE
Wind: NE 9 mph , 15 km/h
Temperature: 11°C
Dew Point: 11°C
Humidity: 100%
Barometer: 1008 hPa
Summary: Mist
Clouds: Overcast
Visibility: 1 mile , 2 km
Cloud details: Overcast 30 m
2021/06/20 02:50 EGGW 200250Z AUTO 04008KT 1600 BR OVC001 11/11 Q1008
EGWU - Northolt Raf, United Kingdom
Distance from station: WSW 40mi, 64km
Updated: 20/06/2021 03:50
Overcast
Overcast
 Wind from NE
Wind: NE 7 mph , 11 km/h
Temperature: 13°C
Dew Point: 12°C
Humidity: 94%
Barometer: 1008 hPa
Clouds: Overcast
Visibility: 6 miles , 10 km
Cloud details: Overcast 244 m
2021/06/20 02:50 EGWU 200250Z AUTO 05006KT 9999 // OVC008/// 13/12 Q1008